Time;durP1;ratioP1;P1;durP2;ratioP2;P2;SDS_P1;SDS_P2;PMS_P1;PMS_P2;Temp;Humidity;BMP_temperature;BMP_pressure;BME280_temperature;BME280_humidity;BME280_pressure;Samples;Min_cycle;Max_cycle;Signal;HPM_P1;HPM_P2
2023/09/08 00:04:14;;;;;;;6.68;3.65;;;;;;;19.47;52.10;100482.03;7684853;32;39441;-82
2023/09/08 00:08:31;;;;;;;9.30;4.32;;;;;;;19.45;52.09;100466.88;7684009;32;40038;-82
2023/09/08 00:12:47;;;;;;;7.85;3.75;;;;;;;19.47;52.15;100465.44;7684359;32;38562;-82
2023/09/08 00:17:04;;;;;;;7.70;3.85;;;;;;;19.65;51.95;100468.31;7685026;32;37146;-82
2023/09/08 00:21:20;;;;;;;8.18;4.60;;;;;;;19.50;51.99;100469.53;7684990;32;40157;-83
2023/09/08 00:25:36;;;;;;;6.03;3.67;;;;;;;19.39;52.25;100460.69;7684789;32;40830;-83
2023/09/08 00:29:53;;;;;;;6.60;3.42;;;;;;;19.43;52.11;100460.84;7684647;32;37993;-82
2023/09/08 00:34:09;;;;;;;8.57;3.55;;;;;;;19.68;51.24;100464.94;7684747;32;37275;-82
2023/09/08 00:38:26;;;;;;;9.77;4.80;;;;;;;19.74;51.09;100462.84;7684902;32;39130;-82
2023/09/08 00:42:42;;;;;;;8.25;4.10;;;;;;;19.59;51.63;100455.75;7684571;32;40786;-82
2023/09/08 00:46:58;;;;;;;8.07;4.10;;;;;;;19.59;51.41;100452.97;7684729;32;37654;-82
2023/09/08 00:51:15;;;;;;;8.23;3.83;;;;;;;19.41;51.97;100458.41;7683277;32;37389;-83
2023/09/08 00:55:31;;;;;;;8.32;4.05;;;;;;;19.49;51.55;100452.12;7684435;32;39350;-82
2023/09/08 00:59:48;;;;;;;8.07;3.80;;;;;;;19.29;52.22;100441.56;7684077;32;39954;-82
2023/09/08 01:04:04;;;;;;;7.28;4.30;;;;;;;19.37;52.02;100432.53;7684447;32;38694;-82
2023/09/08 01:08:21;;;;;;;7.53;3.72;;;;;;;19.52;51.85;100434.91;7684110;32;37084;-83
2023/09/08 01:12:37;;;;;;;7.72;4.00;;;;;;;19.66;51.79;100436.75;7684196;32;39352;-82
2023/09/08 01:16:53;;;;;;;8.98;4.12;;;;;;;19.34;53.02;100433.16;7684057;32;39743;-82
2023/09/08 01:21:25;;;;;;;7.80;4.00;;;;;;;19.40;52.66;100436.59;7683626;32;37954;-82
2023/09/08 01:25:53;;;;;;;6.60;3.83;;;;;;;19.33;52.67;100428.75;7683948;32;37100;-82
2023/09/08 01:30:10;;;;;;;13.02;4.28;;;;;;;18.97;53.56;100434.34;7682661;32;39265;-70
2023/09/08 01:34:26;;;;;;;8.43;4.15;;;;;;;19.11;54.12;100427.63;7682432;32;39870;-81
2023/09/08 01:38:42;;;;;;;7.68;4.40;;;;;;;19.02;53.66;100425.94;7683497;32;37951;-85
2023/09/08 01:42:59;;;;;;;9.10;4.53;;;;;;;18.82;54.42;100427.22;7683248;32;37313;-84
2023/09/08 01:47:15;;;;;;;9.73;4.30;;;;;;;19.01;53.70;100429.84;7683360;32;39247;-83
2023/09/08 01:51:31;;;;;;;9.20;3.90;;;;;;;19.14;53.09;100427.00;7683184;32;40631;-82
2023/09/08 01:55:48;;;;;;;8.77;4.45;;;;;;;18.95;53.52;100423.59;7682743;32;38439;-82
2023/09/08 02:00:05;;;;;;;7.10;4.18;;;;;;;18.79;54.16;100425.06;7683091;32;37032;-82
2023/09/08 02:04:21;;;;;;;7.97;4.62;;;;;;;18.62;54.33;100421.00;7682983;32;40033;-83
2023/09/08 02:08:37;;;;;;;9.30;4.12;;;;;;;18.54;54.88;100435.53;7682781;32;39720;-83
2023/09/08 02:12:54;;;;;;;9.40;4.18;;;;;;;18.54;54.76;100435.53;7682715;32;37667;-82
2023/09/08 02:17:10;;;;;;;10.43;4.43;;;;;;;18.70;54.44;100430.50;7682750;32;37370;-83
2023/09/08 02:21:26;;;;;;;8.25;4.40;;;;;;;18.59;54.61;100427.13;7682599;32;40068;-83
2023/09/08 02:25:42;;;;;;;8.73;4.50;;;;;;;18.66;54.43;100433.09;7682508;32;40019;-84
2023/09/08 02:29:58;;;;;;;7.95;4.53;;;;;;;18.58;54.72;100431.84;7682288;32;38054;-84
2023/09/08 02:34:15;;;;;;;8.32;4.20;;;;;;;18.55;54.91;100437.19;7685902;32;37901;-83
2023/09/08 02:38:32;;;;;;;10.07;4.65;;;;;;;18.34;55.21;100445.09;7686081;32;39404;-82
2023/09/08 02:42:48;;;;;;;10.05;5.00;;;;;;;18.43;55.24;100439.66;7685194;32;40008;-83
2023/09/08 02:47:06;;;;;;;9.38;4.45;;;;;;;18.39;55.05;100440.28;7685895;32;37965;-82
2023/09/08 02:51:22;;;;;;;9.75;4.85;;;;;;;18.29;55.38;100443.25;7685651;32;37059;-82
2023/09/08 02:55:38;;;;;;;8.95;4.35;;;;;;;18.41;55.14;100444.69;7685838;32;40141;-83
2023/09/08 02:59:56;;;;;;;9.32;4.55;;;;;;;18.41;55.10;100439.16;7685798;32;39936;-82
2023/09/08 03:04:12;;;;;;;15.30;4.60;;;;;;;18.31;55.27;100431.91;7685790;32;38334;-83
2023/09/08 03:08:28;;;;;;;9.55;4.40;;;;;;;18.21;55.57;100427.41;7685561;32;37370;-83
2023/09/08 03:12:45;;;;;;;11.18;4.60;;;;;;;18.28;55.45;100427.84;7685720;32;40062;-82
2023/09/08 03:17:01;;;;;;;8.35;4.65;;;;;;;18.16;56.01;100430.25;7685550;32;40768;-83
2023/09/08 03:21:17;;;;;;;8.00;4.22;;;;;;;18.15;55.77;100428.66;7685527;32;38786;-83
2023/09/08 03:25:33;;;;;;;8.18;4.50;;;;;;;18.05;56.20;100432.41;7685547;32;37644;-83
2023/09/08 03:29:49;;;;;;;8.25;4.28;;;;;;;18.09;56.18;100429.87;7685544;32;39042;-83
2023/09/08 03:34:06;;;;;;;8.85;5.07;;;;;;;18.28;55.55;100430.59;7685799;32;38332;-83
2023/09/08 03:38:23;;;;;;;8.80;4.57;;;;;;;18.42;55.16;100426.97;7685178;32;38742;-83
2023/09/08 03:42:41;;;;;;;13.68;4.62;;;;;;;18.20;55.87;100425.78;7684753;32;38041;-83
2023/09/08 03:46:57;;;;;;;8.13;4.50;;;;;;;18.19;56.36;100435.97;7685333;32;38686;-81
2023/09/08 03:51:16;;;;;;;9.50;4.50;;;;;;;18.26;56.15;100435.56;7684835;32;40757;-81
2023/09/08 03:55:32;;;;;;;6.20;3.92;;;;;;;18.08;56.26;100431.00;7683706;32;38828;-82
2023/09/08 03:59:48;;;;;;;8.52;4.37;;;;;;;18.05;56.36;100429.66;7683933;32;37854;-81
2023/09/08 04:04:05;;;;;;;7.62;4.65;;;;;;;18.10;56.42;100439.78;7684911;32;39374;-80
2023/09/08 04:08:21;;;;;;;10.63;4.97;;;;;;;18.21;56.02;100438.44;7684967;32;40800;-80
2023/09/08 04:12:38;;;;;;;11.07;4.62;;;;;;;17.98;56.72;100445.81;7684694;32;38627;-80
2023/09/08 04:16:55;;;;;;;8.10;4.60;;;;;;;18.01;56.47;100442.44;7684895;32;38011;-82
2023/09/08 04:21:11;;;;;;;9.77;4.55;;;;;;;18.03;56.83;100437.44;7684745;32;39833;-81
2023/09/08 04:25:27;;;;;;;10.23;4.50;;;;;;;18.02;56.48;100447.66;7658555;32;39918;-81
2023/09/08 04:29:43;;;;;;;9.25;4.85;;;;;;;18.29;56.03;100448.75;7658336;32;37780;-82
2023/09/08 04:34:00;;;;;;;8.40;4.68;;;;;;;18.04;56.61;100443.75;7675817;32;37651;-81
2023/09/08 04:38:16;;;;;;;10.27;4.82;;;;;;;18.05;57.14;100439.88;7684752;32;39388;-81
2023/09/08 04:42:32;;;;;;;8.43;4.65;;;;;;;17.97;57.11;100445.00;7678906;32;158933;-82
2023/09/08 04:46:49;;;;;;;8.40;4.65;;;;;;;18.25;56.37;100447.75;7684562;32;38666;-82
2023/09/08 04:51:05;;;;;;;8.02;4.43;;;;;;;18.24;56.54;100448.88;7683185;32;37919;-82
2023/09/08 04:55:21;;;;;;;9.02;5.32;;;;;;;18.49;56.11;100443.94;7683640;32;39065;-81
2023/09/08 04:59:39;;;;;;;12.00;4.70;;;;;;;18.55;56.11;100438.00;7684352;32;40590;-82
2023/09/08 05:03:55;;;;;;;9.38;4.87;;;;;;;18.56;56.36;100460.91;7683354;32;38821;-82
2023/09/08 05:08:12;;;;;;;8.38;4.72;;;;;;;18.71;55.85;100452.31;7684028;32;37260;-83
2023/09/08 05:12:28;;;;;;;11.43;5.22;;;;;;;18.72;55.97;100453.91;7683939;32;40036;-82
2023/09/08 05:16:49;;;;;;;9.80;5.20;;;;;;;18.75;55.85;100453.31;7683975;32;39936;-82
2023/09/08 05:21:06;;;;;;;9.45;5.05;;;;;;;18.97;55.34;100454.47;7683932;32;37759;-82
2023/09/08 05:25:22;;;;;;;10.50;4.65;;;;;;;18.99;56.28;100455.00;7683738;32;37167;-83
2023/09/08 05:29:39;;;;;;;10.02;4.43;;;;;;;18.92;56.05;100463.72;7682800;32;39415;-82
2023/09/08 05:33:55;;;;;;;11.25;5.30;;;;;;;19.07;55.65;100461.72;7682737;32;39911;-79
2023/09/08 05:38:11;;;;;;;13.32;4.75;;;;;;;19.12;55.72;100476.22;7683312;32;37844;-82
2023/09/08 05:42:28;;;;;;;16.65;5.47;;;;;;;19.27;55.11;100465.97;7683054;32;37048;-81
2023/09/08 05:46:44;;;;;;;9.48;5.03;;;;;;;19.21;55.27;100468.00;7683500;32;39293;-82
2023/09/08 05:51:02;;;;;;;12.13;4.97;;;;;;;19.48;54.81;100469.84;7683159;32;39864;-82
2023/09/08 05:55:18;;;;;;;13.23;8.18;;;;;;;19.57;54.60;100469.09;7683073;32;38120;-83
2023/09/08 05:59:34;;;;;;;33.00;19.85;;;;;;;19.67;54.44;100477.91;7683129;32;37948;-82
2023/09/08 06:03:51;;;;;;;29.05;18.35;;;;;;;19.98;53.69;100476.34;7682961;32;39252;-81
2023/09/08 06:08:07;;;;;;;16.12;6.18;;;;;;;19.96;54.12;100478.63;7684479;32;40896;-82
2023/09/08 06:12:23;;;;;;;15.13;6.15;;;;;;;20.15;54.84;100470.06;7685730;32;37896;-82
2023/09/08 06:16:40;;;;;;;10.25;4.78;;;;;;;20.52;53.79;100477.00;7685054;32;37272;-82
2023/09/08 06:20:56;;;;;;;12.10;5.10;;;;;;;20.39;52.18;100475.19;7686465;32;39396;-82
2023/09/08 06:25:13;;;;;;;14.63;5.37;;;;;;;20.80;51.48;100474.00;7685818;32;40854;-82
2023/09/08 06:29:29;;;;;;;11.57;5.12;;;;;;;20.97;51.41;100479.56;7685753;32;38671;-83
2023/09/08 06:33:45;;;;;;;8.13;4.45;;;;;;;20.95;51.02;100467.97;7684205;32;38025;-83
2023/09/08 06:38:02;;;;;;;9.88;5.03;;;;;;;20.80;52.02;100474.81;7680257;32;39308;-81
2023/09/08 06:42:18;;;;;;;8.57;4.47;;;;;;;20.35;53.86;100474.19;7685318;32;39997;-82
2023/09/08 06:46:34;;;;;;;13.05;4.70;;;;;;;20.68;52.50;100474.63;7684773;32;38755;-83
2023/09/08 06:50:56;;;;;;;12.07;4.85;;;;;;;20.62;52.77;100470.38;7684421;32;37103;-88
2023/09/08 06:55:16;;;;;;;10.90;5.20;;;;;;;20.82;52.56;100464.22;7683130;32;39344;-83
2023/09/08 06:59:32;;;;;;;12.82;4.75;;;;;;;21.48;50.97;100460.47;7683666;32;39461;-80
2023/09/08 07:03:48;;;;;;;8.13;4.80;;;;;;;21.55;50.85;100454.41;7684846;32;37993;-81
2023/09/08 07:08:06;;;;;;;9.95;4.85;;;;;;;21.61;50.60;100447.56;7683488;32;37897;-70
2023/09/08 07:12:22;;;;;;;6.95;4.53;;;;;;;21.93;48.73;100448.09;7684352;32;39420;-70
2023/09/08 07:16:38;;;;;;;7.37;4.47;;;;;;;22.28;48.32;100443.25;7684660;32;40038;-68
2023/09/08 07:20:55;;;;;;;8.13;4.65;;;;;;;22.31;47.78;100441.75;7683774;32;38814;-70
2023/09/08 07:25:11;;;;;;;10.10;4.82;;;;;;;22.57;47.38;100444.34;7685379;32;37020;-71
2023/09/08 07:29:27;;;;;;;10.75;4.50;;;;;;;22.69;46.80;100441.66;7688162;32;39508;-71
2023/09/08 07:33:43;;;;;;;13.32;4.72;;;;;;;23.10;47.26;100438.44;7685384;32;40584;-70
2023/09/08 07:37:59;;;;;;;11.50;4.53;;;;;;;23.17;46.82;100445.06;7696233;32;37971;-71
2023/09/08 07:42:16;;;;;;;7.03;4.65;;;;;;;23.72;46.04;100433.87;7711773;32;36873;-72
2023/09/08 07:46:32;;;;;;;9.60;4.20;;;;;;;23.31;46.89;100443.97;7689500;32;39627;-71
2023/09/08 07:50:49;;;;;;;7.03;4.55;;;;;;;23.39;46.46;100429.97;7684792;32;39971;-69
2023/09/08 07:55:05;;;;;;;17.12;4.72;;;;;;;23.69;45.44;100427.03;7685025;32;38738;-71
2023/09/08 07:59:21;;;;;;;7.90;4.22;;;;;;;24.09;44.84;100425.59;7685060;32;37433;-71
2023/09/08 08:03:37;;;;;;;9.50;4.53;;;;;;;24.38;44.01;100416.97;7685260;32;39180;-72
2023/09/08 08:07:54;;;;;;;9.45;4.70;;;;;;;24.71;43.63;100409.63;7685056;32;40527;-72
2023/09/08 08:12:10;;;;;;;9.63;4.40;;;;;;;25.08;42.03;100418.69;7683669;32;37965;-81
2023/09/08 08:16:26;;;;;;;10.52;4.82;;;;;;;25.52;41.13;100420.69;7684207;32;37146;-81
2023/09/08 08:20:43;;;;;;;16.45;4.78;;;;;;;25.90;38.59;100410.09;7684546;32;39562;-80
2023/09/08 08:25:01;;;;;;;8.80;4.47;;;;;;;26.20;36.92;100405.69;7684690;32;40026;-83
2023/09/08 08:29:17;;;;;;;9.77;4.18;;;;;;;26.38;37.16;100411.69;7683556;32;37829;-83
2023/09/08 08:33:34;;;;;;;10.32;4.35;;;;;;;26.40;38.02;100406.53;7684713;32;36922;-82
2023/09/08 08:37:50;;;;;;;9.63;4.40;;;;;;;26.72;37.81;100416.87;7678712;32;39384;-83
2023/09/08 08:42:13;;;;;;;9.95;4.37;;;;;;;26.28;37.73;100405.84;7679492;32;40013;-85
2023/09/08 08:46:29;;;;;;;8.25;4.37;;;;;;;26.30;37.88;100398.75;7684619;32;39287;-71
2023/09/08 08:50:47;;;;;;;8.68;4.22;;;;;;;26.77;37.73;100402.59;7684451;32;37675;-71
2023/09/08 08:55:04;;;;;;;9.40;4.75;;;;;;;26.97;37.39;100392.19;7684487;32;39324;-73
2023/09/08 08:59:21;;;;;;;8.73;4.18;;;;;;;26.88;36.60;100395.22;7684350;32;40914;-71
2023/09/08 09:03:40;;;;;;;10.57;4.90;;;;;;;27.14;35.63;100391.72;7683078;32;38642;-74
2023/09/08 09:07:58;;;;;;;7.95;4.07;;;;;;;26.67;36.50;100383.59;7684274;32;36945;-75
2023/09/08 09:12:14;;;;;;;8.15;4.32;;;;;;;26.74;35.35;100380.94;7683967;32;39142;-76
2023/09/08 09:16:30;;;;;;;9.00;4.10;;;;;;;27.51;35.28;100382.87;7683357;32;39985;-74
2023/09/08 09:20:58;;;;;;;7.53;4.10;;;;;;;27.67;34.58;100379.13;7683804;32;38024;-73
2023/09/08 09:25:28;;;;;;;9.20;4.12;;;;;;;28.11;34.16;100375.84;7683721;32;37345;-73
2023/09/08 09:29:46;;;;;;;9.48;4.00;;;;;;;29.02;32.83;100378.69;7679937;32;40099;-74
2023/09/08 09:34:04;;;;;;;9.05;3.80;;;;;;;29.21;32.25;100377.72;7683722;32;40024;-74
2023/09/08 09:38:21;;;;;;;7.70;4.10;;;;;;;29.28;31.91;100374.19;7683619;32;37906;-73
2023/09/08 09:42:41;;;;;;;12.20;3.90;;;;;;;29.87;30.37;100361.12;7690956;32;36738;-85
2023/09/08 09:47:00;;;;;;;7.53;3.97;;;;;;;30.18;28.83;100363.72;7691291;32;39597;-84
2023/09/08 09:51:19;;;;;;;6.90;3.67;;;;;;;30.08;30.13;100359.63;7692286;32;39002;-84
2023/09/08 09:55:36;;;;;;;9.10;4.30;;;;;;;30.34;28.13;100358.59;7692138;32;37832;-85
2023/09/08 09:59:53;;;;;;;9.02;4.10;;;;;;;30.41;29.44;100352.22;7690730;32;37132;-84
2023/09/08 10:04:10;;;;;;;6.95;3.70;;;;;;;30.97;27.44;100345.25;7690767;32;39961;-84
2023/09/08 10:08:28;;;;;;;8.77;3.47;;;;;;;31.33;27.20;100347.34;7690421;32;40833;-84
2023/09/08 10:12:46;;;;;;;5.20;3.25;;;;;;;31.57;26.76;100342.97;7689587;32;39519;-83
2023/09/08 10:17:05;;;;;;;7.50;3.40;;;;;;;31.73;23.92;100346.16;7689546;32;38071;-83
2023/09/08 10:21:23;;;;;;;8.02;3.12;;;;;;;31.38;24.44;100350.56;7691514;32;39915;-86
2023/09/08 10:25:53;;;;;;;8.00;3.85;;;;;;;31.29;24.06;100340.88;7691537;32;40812;-86
2023/09/08 10:30:10;;;;;;;8.32;3.55;;;;;;;31.71;23.68;100333.69;7691129;32;38643;-83
2023/09/08 10:34:27;;;;;;;7.87;3.45;;;;;;;31.99;24.55;100341.31;7689951;32;37609;-82
2023/09/08 10:38:47;;;;;;;6.70;3.70;;;;;;;31.85;24.63;100339.31;7680043;32;39292;-81
2023/09/08 10:43:09;;;;;;;6.25;3.40;;;;;;;31.91;24.72;100340.53;7686422;32;39682;-79
2023/09/08 10:47:26;;;;;;;10.47;3.50;;;;;;;31.02;24.85;100327.97;7690752;32;37025;-82
2023/09/08 10:51:44;;;;;;;7.97;3.60;;;;;;;31.27;25.50;100332.84;7688886;32;37405;-81
2023/09/08 10:56:00;;;;;;;6.18;3.45;;;;;;;30.83;27.10;100328.28;7684825;32;39446;-82
2023/09/08 11:00:23;;;;;;;6.55;3.20;;;;;;;31.10;25.96;100326.00;7684785;32;39970;-83
2023/09/08 11:04:41;;;;;;;9.00;3.90;;;;;;;30.63;27.15;100317.38;7685794;32;37986;-84
2023/09/08 11:09:05;;;;;;;6.30;3.87;;;;;;;31.31;27.45;100313.94;7685867;32;36174;-84
2023/09/08 11:13:22;;;;;;;5.35;3.50;;;;;;;31.80;26.38;100320.78;7684628;32;39154;-82
2023/09/08 11:17:41;;;;;;;8.65;3.75;;;;;;;32.01;26.14;100319.13;7681090;32;39959;-83
2023/09/08 11:21:58;;;;;;;7.20;3.70;;;;;;;32.41;25.85;100317.06;7668518;32;38838;-82
2023/09/08 11:26:16;;;;;;;9.27;4.87;;;;;;;32.22;25.09;100312.69;7670679;32;37225;-83
2023/09/08 11:30:33;;;;;;;8.68;3.58;;;;;;;32.18;26.73;100306.25;7671651;32;39502;-83
2023/09/08 11:34:49;;;;;;;6.72;3.50;;;;;;;32.63;25.53;100300.84;7671313;32;41371;-83
2023/09/08 11:39:07;;;;;;;7.30;3.10;;;;;;;32.96;24.12;100300.66;7670925;32;37802;-83
2023/09/08 11:43:32;;;;;;;8.10;4.20;;;;;;;32.75;24.64;100291.13;7671540;32;36808;-81
2023/09/08 11:47:53;;;;;;;8.07;4.00;;;;;;;33.37;24.06;100277.41;7671715;32;39431;-82
2023/09/08 11:52:11;;;;;;;6.57;3.50;;;;;;;33.31;24.74;100291.97;7670854;32;38287;-82
2023/09/08 11:56:27;;;;;;;6.85;3.87;;;;;;;33.26;24.57;100274.69;7670819;32;37925;-83
2023/09/08 12:00:45;;;;;;;11.40;3.70;;;;;;;32.84;25.18;100274.53;7671545;32;38345;-83
2023/09/08 12:05:01;;;;;;;9.05;3.83;;;;;;;33.14;24.96;100270.31;7669338;32;40084;-82
2023/09/08 12:09:18;;;;;;;7.30;3.72;;;;;;;33.29;25.08;100271.03;7671906;32;39682;-83
2023/09/08 12:13:34;;;;;;;7.60;3.97;;;;;;;33.54;24.16;100267.97;7670350;32;38800;-81
2023/09/08 12:17:51;;;;;;;5.60;3.30;;;;;;;33.40;24.14;100253.97;7683194;32;37480;-81
2023/09/08 12:22:07;;;;;;;6.68;3.50;;;;;;;33.82;23.48;100251.97;7684868;32;40163;-81
2023/09/08 12:26:25;;;;;;;9.35;3.83;;;;;;;33.39;23.87;100247.53;7683639;32;40737;-81
2023/09/08 12:30:43;;;;;;;11.30;4.07;;;;;;;33.38;24.06;100240.25;7684672;32;37867;-81
2023/09/08 12:35:03;;;;;;;6.22;3.70;;;;;;;33.01;24.23;100244.56;7684799;32;37086;-81
2023/09/08 12:39:19;;;;;;;6.55;3.50;;;;;;;33.19;24.14;100238.03;7684967;32;39968;-81
2023/09/08 12:43:35;;;;;;;10.23;3.75;;;;;;;33.45;24.15;100225.28;7684626;32;41172;-81
2023/09/08 12:47:52;;;;;;;7.25;3.40;;;;;;;33.92;24.60;100228.41;7684514;32;37732;-84
2023/09/08 12:52:09;;;;;;;7.65;3.62;;;;;;;33.97;23.62;100225.12;7683320;32;37844;-83
2023/09/08 12:56:25;;;;;;;5.53;3.35;;;;;;;32.90;23.71;100226.91;7684457;32;39240;-84
2023/09/08 13:00:42;;;;;;;5.05;3.53;;;;;;;33.78;22.30;100212.44;7684306;32;39720;-83
2023/09/08 13:04:58;;;;;;;11.32;3.65;;;;;;;33.99;21.47;100211.38;7684290;32;38056;-85
2023/09/08 13:09:15;;;;;;;8.70;3.50;;;;;;;33.90;21.56;100213.91;7684327;32;37866;-84
2023/09/08 13:13:31;;;;;;;6.12;3.28;;;;;;;34.03;21.23;100212.16;7684186;32;39172;-83
2023/09/08 13:17:48;;;;;;;6.47;3.45;;;;;;;33.93;21.44;100201.75;7683556;32;39753;-84
2023/09/08 13:22:07;;;;;;;5.87;3.10;;;;;;;34.42;21.02;100199.50;7683928;32;38104;-84
2023/09/08 13:26:23;;;;;;;7.95;3.47;;;;;;;35.11;20.13;100199.28;7684131;32;37801;-83
2023/09/08 13:30:40;;;;;;;5.70;3.08;;;;;;;35.58;20.97;100192.81;7683726;32;40024;-83
2023/09/08 13:34:56;;;;;;;6.03;3.33;;;;;;;35.67;18.22;100195.06;7683647;32;39912;-82
2023/09/08 13:39:12;;;;;;;9.90;3.65;;;;;;;35.61;18.62;100196.81;7683372;32;38725;-84
2023/09/08 13:43:28;;;;;;;4.87;2.70;;;;;;;35.69;18.40;100189.78;7679172;32;37381;-83
2023/09/08 13:47:44;;;;;;;11.63;3.42;;;;;;;35.78;18.10;100187.19;7681358;32;39391;-83
2023/09/08 13:52:02;;;;;;;22.50;4.05;;;;;;;34.98;18.52;100179.28;7682777;32;39947;-80
2023/09/08 13:56:20;;;;;;;11.12;3.70;;;;;;;34.96;19.34;100180.94;7682370;32;38738;-81
2023/09/08 14:00:38;;;;;;;8.75;3.10;;;;;;;35.13;18.72;100168.53;7682484;32;37944;-81
2023/09/08 14:05:00;;;;;;;9.10;3.62;;;;;;;35.14;18.28;100161.59;7682230;32;39423;-81
2023/09/08 14:09:19;;;;;;;5.72;3.20;;;;;;;35.42;19.31;100167.22;7682355;32;40051;-81
2023/09/08 14:13:56;;;;;;;6.37;3.35;;;;;;;36.19;17.70;100157.56;7681913;32;38148;-81
2023/09/08 14:18:14;;;;;;;6.32;2.95;;;;;;;35.78;17.55;100173.00;7682174;32;37017;-82
2023/09/08 14:22:30;;;;;;;5.80;2.85;;;;;;;36.24;16.95;100157.06;7681963;32;39320;-81
2023/09/08 14:26:46;;;;;;;7.15;3.30;;;;;;;36.26;17.01;100143.22;7682209;32;40017;-81
2023/09/08 14:31:03;;;;;;;7.37;3.17;;;;;;;36.28;16.46;100149.25;7685121;32;38743;-82
2023/09/08 14:35:19;;;;;;;7.18;3.10;;;;;;;35.73;16.71;100148.00;7684299;32;37140;-82
2023/09/08 14:39:36;;;;;;;6.62;3.12;;;;;;;35.10;17.66;100149.53;7685613;32;39124;-83
2023/09/08 14:43:52;;;;;;;4.57;2.70;;;;;;;35.23;17.39;100146.91;7685085;32;40530;-82
2023/09/08 14:48:08;;;;;;;6.72;3.05;;;;;;;35.35;18.56;100139.81;7685402;32;38745;-82
2023/09/08 14:52:25;;;;;;;6.57;3.37;;;;;;;35.53;17.21;100143.09;7684075;32;36991;-81
2023/09/08 14:56:41;;;;;;;7.28;3.20;;;;;;;34.80;18.02;100144.78;7685287;32;40114;-82
2023/09/08 15:01:03;;;;;;;5.45;2.97;;;;;;;34.51;18.64;100142.37;7685257;32;40647;-83
2023/09/08 15:05:20;;;;;;;8.27;2.90;;;;;;;34.52;18.34;100137.53;7684009;32;37769;-80
2023/09/08 15:09:36;;;;;;;10.98;3.12;;;;;;;34.24;18.58;100137.53;7685415;32;37879;-81
2023/09/08 15:13:52;;;;;;;6.22;2.83;;;;;;;34.02;18.41;100139.03;7685013;32;39326;-81
2023/09/08 15:18:08;;;;;;;8.80;3.22;;;;;;;33.43;18.71;100138.09;7685092;32;40115;-82
2023/09/08 15:22:25;;;;;;;7.00;3.20;;;;;;;33.29;19.35;100135.44;7684944;32;38060;-81
2023/09/08 15:26:42;;;;;;;7.57;3.33;;;;;;;32.74;19.94;100145.56;7683619;32;37029;-81
2023/09/08 15:31:07;;;;;;;6.25;3.08;;;;;;;32.89;19.96;100137.78;7684907;32;39592;-81
2023/09/08 15:35:24;;;;;;;7.22;3.00;;;;;;;32.95;19.86;100136.13;7684781;32;39752;-85
2023/09/08 15:39:40;;;;;;;5.28;2.83;;;;;;;33.02;20.16;100150.16;7684410;32;38672;-85
2023/09/08 15:43:56;;;;;;;7.07;3.40;;;;;;;33.26;19.58;100141.91;7684538;32;36971;-85
2023/09/08 15:48:13;;;;;;;5.25;2.70;;;;;;;33.61;19.54;100126.56;7684687;32;40268;-85
2023/09/08 15:52:29;;;;;;;7.07;3.15;;;;;;;33.94;19.23;100126.19;7684629;32;40401;-85
2023/09/08 15:56:45;;;;;;;36.38;16.55;;;;;;;33.81;19.80;100131.63;7684522;32;38555;-85
2023/09/08 16:01:03;;;;;;;32.90;15.77;;;;;;;34.16;19.39;100129.53;7684448;32;37953;-84
2023/09/08 16:05:19;;;;;;;9.52;4.53;;;;;;;34.22;19.25;100123.03;7684308;32;39331;-85
2023/09/08 16:09:37;;;;;;;6.85;3.72;;;;;;;34.26;19.56;100128.63;7684574;32;39740;-85
2023/09/08 16:13:54;;;;;;;5.87;3.12;;;;;;;34.54;18.87;100127.38;7684229;32;37969;-85
2023/09/08 16:18:11;;;;;;;5.97;3.30;;;;;;;34.90;18.68;100123.19;7684927;32;37205;-84
2023/09/08 16:22:28;;;;;;;7.32;3.45;;;;;;;35.30;18.44;100117.63;7683962;32;39124;-84
2023/09/08 16:26:44;;;;;;;12.20;4.00;;;;;;;35.01;18.39;100120.97;7684091;32;40733;-84
2023/09/08 16:31:05;;;;;;;8.57;3.08;;;;;;;34.81;18.80;100112.44;7684100;32;37941;-85
2023/09/08 16:35:22;;;;;;;6.97;2.90;;;;;;;34.73;19.04;100111.72;7683983;32;37937;-84
2023/09/08 16:39:39;;;;;;;5.80;3.00;;;;;;;34.15;19.68;100116.62;7684178;32;39416;-84
2023/09/08 16:43:56;;;;;;;8.57;2.92;;;;;;;33.83;20.49;100113.00;7683300;32;40835;-85
2023/09/08 16:48:13;;;;;;;4.87;2.87;;;;;;;33.63;20.60;100126.97;7683973;32;37968;-84
2023/09/08 16:52:30;;;;;;;5.28;3.03;;;;;;;32.82;21.56;100135.00;7683077;32;37634;-85
2023/09/08 16:56:46;;;;;;;7.15;3.78;;;;;;;32.13;22.53;100138.28;7683755;32;39512;-84
2023/09/08 17:01:03;;;;;;;9.25;5.12;;;;;;;31.78;23.32;100140.00;7683057;32;40118;-85
2023/09/08 17:05:20;;;;;;;11.68;5.97;;;;;;;31.38;24.07;100142.13;7683573;32;38646;-84
2023/09/08 17:09:41;;;;;;;10.52;4.25;;;;;;;30.73;25.31;100137.72;7684139;32;38594;-85
2023/09/08 17:13:57;;;;;;;14.57;4.18;;;;;;;30.32;26.66;100141.66;7683027;32;39429;-84
2023/09/08 17:18:15;;;;;;;6.93;3.40;;;;;;;29.90;27.35;100143.94;7683648;32;39574;-84
2023/09/08 17:22:32;;;;;;;8.27;3.30;;;;;;;29.36;28.13;100148.44;7682157;32;38020;-85
2023/09/08 17:26:48;;;;;;;4.95;2.80;;;;;;;28.97;28.76;100148.94;7683163;32;37881;-85
2023/09/08 17:31:05;;;;;;;5.12;3.08;;;;;;;28.57;29.54;100167.41;7683355;32;40186;-84
2023/09/08 17:35:22;;;;;;;5.80;3.30;;;;;;;28.24;29.96;100172.63;7683599;32;39868;-83
2023/09/08 17:39:38;;;;;;;6.37;3.03;;;;;;;28.06;30.21;100183.66;7682237;32;38006;-84
2023/09/08 17:43:54;;;;;;;5.75;3.17;;;;;;;27.66;30.86;100187.88;7683424;32;37195;-85
2023/09/08 17:48:11;;;;;;;8.85;3.90;;;;;;;27.47;31.02;100190.78;7683507;32;39425;-72
2023/09/08 17:52:27;;;;;;;6.87;3.22;;;;;;;27.15;33.01;100196.69;7683337;32;39816;-73
2023/09/08 17:56:43;;;;;;;7.15;3.75;;;;;;;27.02;32.46;100193.25;7683093;32;38830;-73
2023/09/08 18:01:00;;;;;;;11.85;3.92;;;;;;;26.96;32.50;100206.75;7683760;32;37628;-73
2023/09/08 18:05:16;;;;;;;9.38;4.07;;;;;;;26.81;32.72;100198.50;7686423;32;40111;-84
2023/09/08 18:09:33;;;;;;;7.90;3.60;;;;;;;26.70;32.86;100209.47;7686204;32;40725;-84
2023/09/08 18:13:49;;;;;;;6.82;3.45;;;;;;;26.40;33.29;100210.88;7686130;32;38158;-84
2023/09/08 18:18:06;;;;;;;11.75;4.05;;;;;;;26.30;33.42;100213.47;7685242;32;37043;-84
2023/09/08 18:22:25;;;;;;;11.95;4.37;;;;;;;26.17;33.43;100215.62;7685418;32;39492;-84
2023/09/08 18:26:42;;;;;;;11.60;4.30;;;;;;;25.96;33.83;100219.56;7685991;32;40844;-85
2023/09/08 18:30:59;;;;;;;10.45;3.80;;;;;;;25.69;33.92;100218.53;7686179;32;37926;-85
2023/09/08 18:35:16;;;;;;;10.52;4.07;;;;;;;25.67;34.41;100218.88;7685833;32;37027;-84
2023/09/08 18:39:32;;;;;;;7.57;3.62;;;;;;;25.47;34.99;100215.25;7685823;32;40063;-83
2023/09/08 18:43:49;;;;;;;7.68;4.05;;;;;;;25.30;35.40;100213.66;7685833;32;39941;-85
2023/09/08 18:48:05;;;;;;;9.55;4.57;;;;;;;25.16;35.89;100209.66;7685910;32;38790;-84
2023/09/08 18:52:29;;;;;;;8.50;4.30;;;;;;;25.10;36.05;100212.72;7684566;32;36854;-84
2023/09/08 18:56:47;;;;;;;18.27;5.75;;;;;;;25.11;35.98;100217.16;7684078;32;39308;-86
2023/09/08 19:01:08;;;;;;;22.75;5.07;;;;;;;24.92;36.37;100219.81;7685641;32;39686;-86
2023/09/08 19:05:35;;;;;;;7.78;3.55;;;;;;;24.80;36.81;100211.53;7685649;32;37993;-86
2023/09/08 19:10:14;;;;;;;6.95;3.28;;;;;;;24.73;37.11;100207.41;7696621;32;36940;-89
2023/09/08 19:14:42;;;;;;;6.12;3.67;;;;;;;24.68;37.24;100216.03;7693483;32;39261;-83
2023/09/08 19:19:01;;;;;;;5.82;3.28;;;;;;;24.68;37.41;100216.03;7685653;32;38636;-83
2023/09/08 19:23:25;;;;;;;6.77;3.57;;;;;;;24.26;38.58;100210.03;7685525;32;37979;-82
2023/09/08 19:27:47;;;;;;;8.50;3.92;;;;;;;23.98;39.25;100213.63;7685621;32;38003;-82
2023/09/08 19:32:06;;;;;;;12.05;5.37;;;;;;;23.93;39.42;100209.09;7685445;32;39411;-84
2023/09/08 19:36:24;;;;;;;11.50;6.12;;;;;;;23.97;39.90;100209.19;7685672;32;38177;-84
2023/09/08 19:40:41;;;;;;;10.40;4.82;;;;;;;23.81;40.32;100206.34;7685233;32;38848;-85
2023/09/08 19:45:00;;;;;;;8.30;4.55;;;;;;;23.76;40.50;100214.91;7683005;32;37098;-84
2023/09/08 19:49:22;;;;;;;32.92;5.07;;;;;;;23.71;40.64;100213.16;7702292;32;39172;-83
2023/09/08 19:53:38;;;;;;;12.18;6.37;;;;;;;23.52;41.06;100224.91;7699697;32;39858;-82
2023/09/08 19:57:54;;;;;;;9.63;4.22;;;;;;;23.42;40.87;100225.38;7696302;32;37923;-84